createdAt,value
2018-11-14T00:02:25.801Z,81.30
2018-11-14T00:07:28.396Z,81.77
2018-11-14T00:12:45.515Z,81.83
2018-11-14T00:17:48.227Z,82.13
2018-11-14T00:22:50.817Z,81.57
2018-11-14T00:27:52.889Z,80.94
2018-11-14T00:32:54.845Z,80.69
2018-11-14T00:37:56.801Z,81.42
2018-11-14T00:42:59.202Z,81.88
2018-11-14T00:48:01.630Z,82.24
2018-11-14T00:53:03.839Z,82.56
2018-11-14T00:58:05.871Z,82.76
2018-11-14T01:03:07.914Z,82.13
2018-11-14T01:08:09.886Z,82.16
2018-11-14T01:13:12.011Z,81.71
2018-11-14T01:18:14.215Z,81.48
2018-11-14T01:23:16.243Z,81.49
2018-11-14T01:28:18.574Z,81.45
2018-11-14T01:33:20.559Z,80.82
2018-11-14T01:38:22.823Z,80.80
2018-11-14T01:43:25.083Z,80.44
2018-11-14T01:48:27.614Z,80.66
2018-11-14T01:53:29.602Z,80.82
2018-11-14T01:58:31.571Z,81.03
2018-11-14T02:03:33.953Z,81.45
2018-11-14T02:08:35.957Z,81.35
2018-11-14T02:13:37.952Z,81.33
2018-11-14T02:18:40.613Z,81.58
2018-11-14T02:23:42.582Z,81.48
2018-11-14T02:28:44.875Z,81.85
2018-11-14T02:33:46.884Z,81.62
2018-11-14T02:38:48.911Z,81.91
2018-11-14T02:43:50.995Z,82.45
2018-11-14T02:48:53.293Z,82.08
2018-11-14T02:53:55.433Z,82.24
2018-11-14T02:58:57.422Z,82.09
2018-11-14T03:03:59.637Z,81.39
2018-11-14T03:09:01.644Z,81.50
2018-11-14T03:14:03.971Z,81.46
2018-11-14T03:19:06.031Z,81.54
2018-11-14T03:24:08.163Z,81.65
2018-11-14T03:29:10.135Z,81.73
2018-11-14T03:34:12.118Z,81.66
2018-11-14T03:39:14.502Z,81.50
2018-11-14T03:44:16.991Z,81.26
2018-11-14T03:49:19.880Z,81.31
2018-11-14T03:54:21.866Z,81.24
2018-11-14T03:59:23.859Z,81.46
2018-11-14T04:04:26.559Z,81.58
2018-11-14T04:09:28.577Z,81.31
2018-11-14T04:14:30.706Z,80.96
2018-11-14T04:19:33.811Z,81.29
2018-11-14T04:24:35.799Z,81.32
2018-11-14T04:29:37.794Z,81.36
2018-11-14T04:34:40.055Z,81.63
2018-11-14T04:39:42.307Z,81.96
2018-11-14T04:44:44.307Z,82.15
2018-11-14T04:49:46.810Z,82.39
2018-11-14T04:54:48.838Z,82.71
2018-11-14T04:59:50.904Z,82.58
2018-11-14T05:04:52.940Z,82.63
2018-11-14T05:09:55.631Z,83.21
2018-11-14T05:14:57.647Z,83.47
2018-11-14T05:20:00.797Z,83.78
2018-11-14T05:25:03.143Z,83.63
2018-11-14T05:30:07.720Z,83.57
2018-11-14T05:35:10.700Z,83.72
2018-11-14T05:40:14.125Z,83.55
2018-11-14T05:45:25.072Z,83.44
2018-11-14T05:50:27.784Z,83.28
2018-11-14T05:55:29.803Z,83.20
2018-11-14T06:00:31.912Z,83.00
2018-11-14T06:05:33.978Z,82.40
2018-11-14T06:10:36.372Z,82.54
2018-11-14T06:15:38.413Z,82.82
2018-11-14T06:20:40.477Z,82.81
2018-11-14T06:25:42.718Z,83.00
2018-11-14T06:30:44.759Z,81.88
2018-11-14T06:35:46.794Z,82.25
2018-11-14T06:40:48.820Z,82.76
2018-11-14T06:45:50.865Z,82.98
2018-11-14T06:50:52.969Z,83.02
2018-11-14T06:55:55.032Z,82.25
2018-11-14T07:00:57.089Z,82.39
2018-11-14T07:05:59.274Z,82.26
2018-11-14T07:11:01.515Z,81.49
2018-11-14T07:16:03.438Z,81.68
2018-11-14T07:21:05.514Z,82.26
2018-11-14T07:26:07.534Z,82.64
2018-11-14T07:31:09.526Z,82.58
2018-11-14T07:36:11.534Z,82.43
2018-11-14T07:41:15.802Z,82.63
2018-11-14T07:46:18.010Z,82.70
2018-11-14T07:51:20.130Z,82.58
2018-11-14T07:56:22.502Z,82.50
2018-11-14T08:01:24.994Z,82.47
2018-11-14T08:06:27.027Z,82.24
2018-11-14T08:11:29.044Z,82.06
2018-11-14T08:16:31.066Z,81.59
2018-11-14T08:21:33.683Z,80.73
2018-11-14T08:26:36.014Z,79.96
2018-11-14T08:31:37.985Z,79.82
2018-11-14T08:36:40.174Z,78.59
2018-11-14T08:41:42.178Z,77.80
2018-11-14T08:46:44.199Z,77.86
2018-11-14T08:51:46.512Z,77.04
2018-11-14T08:56:48.555Z,75.91
2018-11-14T09:01:50.610Z,75.78
2018-11-14T09:06:52.760Z,75.17
2018-11-14T09:11:55.698Z,75.28
2018-11-14T09:16:57.730Z,73.81
2018-11-14T09:22:00.531Z,73.80
2018-11-14T09:27:02.643Z,73.11
2018-11-14T09:32:04.715Z,73.87
2018-11-14T09:37:06.731Z,72.88
2018-11-14T09:42:08.769Z,71.71
2018-11-14T09:47:11.093Z,70.87
2018-11-14T09:52:13.197Z,70.65
2018-11-14T09:57:15.274Z,69.66
2018-11-14T10:02:17.341Z,66.95
2018-11-14T10:07:19.367Z,65.58
2018-11-14T10:12:21.593Z,65.70
2018-11-14T10:17:23.847Z,63.64
2018-11-14T10:22:26.206Z,63.04
2018-11-14T10:27:29.106Z,62.65
2018-11-14T10:32:32.692Z,62.18
2018-11-14T10:37:34.756Z,61.50
2018-11-14T10:42:37.709Z,62.26
2018-11-14T10:47:40.433Z,60.82
2018-11-14T10:52:42.518Z,59.71
2018-11-14T10:57:45.579Z,60.01
2018-11-14T11:02:53.706Z,60.01
2018-11-14T11:08:02.079Z,58.75
2018-11-14T11:13:15.465Z,56.80
2018-11-14T11:18:19.031Z,57.72
2018-11-14T11:23:21.176Z,57.45
2018-11-14T11:28:24.243Z,56.31
2018-11-14T11:33:26.682Z,57.34
2018-11-14T11:38:29.411Z,55.23
2018-11-14T11:43:32.256Z,56.14
2018-11-14T11:48:35.197Z,54.79
2018-11-14T11:53:39.361Z,54.64
2018-11-14T11:58:42.330Z,55.64
2018-11-14T12:03:45.874Z,53.87
2018-11-14T12:08:49.324Z,53.84
2018-11-14T12:13:54.175Z,56.63
2018-11-14T12:18:56.885Z,53.83
2018-11-14T12:23:59.004Z,53.18
2018-11-14T12:29:01.753Z,52.38
2018-11-14T12:34:14.266Z,51.51
2018-11-14T12:39:16.347Z,51.97
2018-11-14T12:44:19.080Z,49.86
2018-11-14T12:49:21.874Z,49.32
2018-11-14T12:54:24.813Z,48.72
2018-11-14T12:59:27.011Z,47.49
2018-11-14T13:04:29.044Z,48.01
2018-11-14T13:09:31.481Z,52.13
2018-11-14T13:14:34.101Z,54.56
2018-11-14T13:19:36.135Z,54.97
2018-11-14T13:24:38.648Z,55.18
2018-11-14T13:29:42.060Z,56.11
2018-11-14T13:34:44.118Z,56.72
2018-11-14T13:39:46.204Z,57.16
2018-11-14T13:44:48.814Z,57.70
2018-11-14T13:49:51.220Z,59.36
2018-11-14T13:54:53.233Z,61.53
2018-11-14T13:59:55.287Z,62.13
2018-11-14T14:04:57.303Z,63.60
2018-11-14T14:09:59.815Z,63.70
2018-11-14T14:15:02.005Z,64.37
2018-11-14T14:20:05.065Z,64.83
2018-11-14T14:25:08.773Z,64.96
2018-11-14T14:30:16.141Z,65.50
2018-11-14T14:35:20.355Z,66.30
2018-11-14T14:40:22.815Z,66.82
2018-11-14T14:45:26.050Z,67.32
2018-11-14T14:50:28.134Z,67.14
2018-11-14T14:55:30.251Z,67.70
2018-11-14T15:00:32.323Z,67.77
2018-11-14T15:05:34.443Z,68.17
2018-11-14T15:10:36.571Z,68.80
2018-11-14T15:15:38.601Z,69.85
2018-11-14T15:20:40.954Z,69.91
2018-11-14T15:25:43.011Z,70.47
2018-11-14T15:30:45.697Z,71.20
2018-11-14T15:35:47.765Z,72.03
2018-11-14T15:40:50.230Z,71.67
2018-11-14T15:45:52.565Z,70.34
2018-11-14T15:50:56.323Z,69.18
2018-11-14T15:55:58.322Z,69.51
2018-11-14T16:01:00.406Z,69.53
2018-11-14T16:06:03.728Z,70.96
2018-11-14T16:11:05.984Z,72.30
2018-11-14T16:16:08.033Z,72.28
2018-11-14T16:21:10.277Z,71.73
2018-11-14T16:26:13.409Z,72.59
2018-11-14T16:31:16.352Z,73.09
2018-11-14T16:36:18.996Z,73.03
2018-11-14T16:41:20.986Z,74.03
2018-11-14T16:46:24.130Z,74.75
2018-11-14T16:51:26.549Z,75.92
2018-11-14T16:56:29.526Z,76.49
2018-11-14T17:01:32.050Z,76.69
2018-11-14T17:06:34.687Z,76.83
2018-11-14T17:11:43.706Z,76.20
2018-11-14T17:16:45.950Z,76.05
2018-11-14T17:21:48.316Z,76.48
2018-11-14T17:26:50.757Z,76.17
2018-11-14T17:31:54.016Z,75.89
2018-11-14T17:36:56.659Z,75.26
2018-11-14T17:41:59.653Z,75.45
2018-11-14T17:47:01.494Z,75.66
2018-11-14T17:52:03.532Z,75.21
2018-11-14T17:57:05.603Z,75.61
2018-11-14T18:02:07.673Z,75.43
2018-11-14T18:07:11.585Z,74.95
2018-11-14T18:12:14.599Z,74.91
2018-11-14T18:17:17.450Z,75.07
2018-11-14T18:22:20.768Z,75.32
2018-11-14T18:27:23.253Z,75.39
2018-11-14T18:32:26.351Z,75.75
2018-11-14T18:37:28.558Z,76.30
2018-11-14T18:42:30.606Z,76.75
2018-11-14T18:47:32.686Z,77.33
2018-11-14T18:52:36.339Z,77.48
2018-11-14T18:57:38.997Z,77.17
2018-11-14T19:02:42.103Z,77.86
2018-11-14T19:07:45.870Z,77.51
2018-11-14T19:12:49.451Z,77.55
2018-11-14T19:17:52.547Z,77.61
2018-11-14T19:22:57.594Z,77.83
2018-11-14T19:28:00.406Z,77.33
2018-11-14T19:33:03.119Z,77.84
2018-11-14T19:38:05.173Z,78.02
2018-11-14T19:43:08.860Z,77.93
2018-11-14T19:48:12.039Z,77.79
2018-11-14T19:53:14.918Z,78.46
2018-11-14T19:58:16.999Z,78.04
2018-11-14T20:03:19.096Z,78.03
2018-11-14T20:08:22.234Z,78.24
2018-11-14T20:13:24.867Z,77.86
2018-11-14T20:18:27.862Z,77.90
2018-11-14T20:23:29.974Z,78.08
2018-11-14T20:28:33.707Z,78.44
2018-11-14T20:33:35.957Z,78.52
2018-11-14T20:38:38.005Z,79.10
2018-11-14T20:43:40.657Z,79.50
2018-11-14T20:48:42.751Z,79.51
2018-11-14T20:53:44.924Z,79.46
2018-11-14T20:58:47.227Z,80.03
2018-11-14T21:03:50.294Z,80.02
2018-11-14T21:08:52.999Z,80.26
2018-11-14T21:13:55.312Z,80.32
2018-11-14T21:18:57.351Z,80.51
2018-11-14T21:23:59.554Z,80.89
2018-11-14T21:29:01.635Z,80.73
2018-11-14T21:34:03.794Z,80.85
2018-11-14T21:39:09.174Z,81.23
2018-11-14T21:44:11.995Z,81.48
2018-11-14T21:49:19.782Z,81.57
2018-11-14T21:54:22.175Z,81.88
2018-11-14T21:59:24.191Z,81.91
2018-11-14T22:04:26.275Z,82.09
2018-11-14T22:09:28.509Z,82.41
2018-11-14T22:14:30.543Z,82.40
2018-11-14T22:19:32.848Z,82.29
2018-11-14T22:24:35.158Z,82.28
2018-11-14T22:29:37.543Z,82.05
2018-11-14T22:34:39.689Z,82.30
2018-11-14T22:39:41.631Z,82.82
2018-11-14T22:44:43.710Z,82.76
2018-11-14T22:49:46.679Z,82.98
2018-11-14T22:54:48.872Z,82.80
2018-11-14T22:59:51.231Z,82.85
2018-11-14T23:04:53.953Z,83.29
2018-11-14T23:09:55.986Z,83.17
2018-11-14T23:14:57.990Z,83.33
2018-11-14T23:20:00.546Z,82.93
2018-11-14T23:25:02.790Z,83.21
2018-11-14T23:30:05.943Z,83.30
2018-11-14T23:35:13.705Z,82.95
2018-11-14T23:40:15.718Z,83.03
2018-11-14T23:45:20.245Z,83.23
2018-11-14T23:50:25.359Z,83.50
2018-11-14T23:55:28.259Z,83.51
